sensor_id;sensor_type;location;lat;lon;timestamp;temperature;humidity
51733;DHT22;39139;53.144;6.244;2023-11-21T00:02:20;9.60;99.90
51733;DHT22;39139;53.144;6.244;2023-11-21T00:04:47;9.60;99.90
51733;DHT22;39139;53.144;6.244;2023-11-21T00:07:13;9.60;99.90
51733;DHT22;39139;53.144;6.244;2023-11-21T00:09:39;9.60;99.90
51733;DHT22;39139;53.144;6.244;2023-11-21T00:12:04;9.70;99.90
51733;DHT22;39139;53.144;6.244;2023-11-21T00:14:30;9.70;99.90
51733;DHT22;39139;53.144;6.244;2023-11-21T00:16:55;9.60;99.90
51733;DHT22;39139;53.144;6.244;2023-11-21T00:19:21;9.70;99.90
51733;DHT22;39139;53.144;6.244;2023-11-21T00:21:47;9.70;99.90
51733;DHT22;39139;53.144;6.244;2023-11-21T00:24:12;9.70;99.90
51733;DHT22;39139;53.144;6.244;2023-11-21T00:26:42;9.70;99.90
51733;DHT22;39139;53.144;6.244;2023-11-21T00:29:07;9.70;99.90
51733;DHT22;39139;53.144;6.244;2023-11-21T00:31:34;10.30;99.90
51733;DHT22;39139;53.144;6.244;2023-11-21T00:34:02;9.70;99.90
51733;DHT22;39139;53.144;6.244;2023-11-21T00:36:29;9.70;99.90
51733;DHT22;39139;53.144;6.244;2023-11-21T00:38:54;10.90;99.90
51733;DHT22;39139;53.144;6.244;2023-11-21T00:41:21;9.70;99.90
51733;DHT22;39139;53.144;6.244;2023-11-21T00:43:46;11.10;99.90
51733;DHT22;39139;53.144;6.244;2023-11-21T00:46:12;9.60;99.90
51733;DHT22;39139;53.144;6.244;2023-11-21T00:48:39;9.60;99.90
51733;DHT22;39139;53.144;6.244;2023-11-21T00:51:05;9.60;99.90
51733;DHT22;39139;53.144;6.244;2023-11-21T00:53:31;9.70;99.90
51733;DHT22;39139;53.144;6.244;2023-11-21T00:55:57;9.70;99.90
51733;DHT22;39139;53.144;6.244;2023-11-21T00:58:24;9.70;99.90
51733;DHT22;39139;53.144;6.244;2023-11-21T01:00:50;9.70;99.90
51733;DHT22;39139;53.144;6.244;2023-11-21T01:03:16;9.70;99.90
51733;DHT22;39139;53.144;6.244;2023-11-21T01:05:41;9.70;99.90
51733;DHT22;39139;53.144;6.244;2023-11-21T01:08:07;10.90;99.90
51733;DHT22;39139;53.144;6.244;2023-11-21T01:10:32;9.70;99.90
51733;DHT22;39139;53.144;6.244;2023-11-21T01:12:59;9.80;99.90
51733;DHT22;39139;53.144;6.244;2023-11-21T01:15:25;11.00;99.90
51733;DHT22;39139;53.144;6.244;2023-11-21T01:17:54;11.10;99.90
51733;DHT22;39139;53.144;6.244;2023-11-21T01:20:20;9.70;99.90
51733;DHT22;39139;53.144;6.244;2023-11-21T01:22:45;9.80;99.90
51733;DHT22;39139;53.144;6.244;2023-11-21T01:25:13;9.70;99.90
51733;DHT22;39139;53.144;6.244;2023-11-21T01:27:39;9.70;99.90
51733;DHT22;39139;53.144;6.244;2023-11-21T01:30:06;9.70;99.90
51733;DHT22;39139;53.144;6.244;2023-11-21T01:32:33;9.80;99.90
51733;DHT22;39139;53.144;6.244;2023-11-21T01:34:59;9.70;99.90
51733;DHT22;39139;53.144;6.244;2023-11-21T01:37:25;10.20;99.90
51733;DHT22;39139;53.144;6.244;2023-11-21T01:39:56;10.40;99.90
51733;DHT22;39139;53.144;6.244;2023-11-21T01:42:21;11.10;99.90
51733;DHT22;39139;53.144;6.244;2023-11-21T01:44:47;9.80;99.90
51733;DHT22;39139;53.144;6.244;2023-11-21T01:47:14;10.80;99.90
51733;DHT22;39139;53.144;6.244;2023-11-21T01:49:43;10.50;99.90
51733;DHT22;39139;53.144;6.244;2023-11-21T01:52:10;9.70;99.90
51733;DHT22;39139;53.144;6.244;2023-11-21T01:54:37;9.80;99.90
51733;DHT22;39139;53.144;6.244;2023-11-21T01:57:04;9.80;99.90
51733;DHT22;39139;53.144;6.244;2023-11-21T01:59:36;9.80;99.90
51733;DHT22;39139;53.144;6.244;2023-11-21T02:02:06;9.80;99.90
51733;DHT22;39139;53.144;6.244;2023-11-21T02:04:35;9.80;99.90
51733;DHT22;39139;53.144;6.244;2023-11-21T02:07:04;9.90;99.90
51733;DHT22;39139;53.144;6.244;2023-11-21T02:09:33;9.80;99.90
51733;DHT22;39139;53.144;6.244;2023-11-21T02:11:59;9.80;99.90
51733;DHT22;39139;53.144;6.244;2023-11-21T02:14:26;9.80;99.90
51733;DHT22;39139;53.144;6.244;2023-11-21T02:16:53;10.40;99.90
51733;DHT22;39139;53.144;6.244;2023-11-21T02:19:20;9.90;99.90
51733;DHT22;39139;53.144;6.244;2023-11-21T02:21:49;9.80;99.90
51733;DHT22;39139;53.144;6.244;2023-11-21T02:24:15;10.20;99.90
51733;DHT22;39139;53.144;6.244;2023-11-21T02:26:43;9.90;99.90
51733;DHT22;39139;53.144;6.244;2023-11-21T02:29:09;9.80;99.90
51733;DHT22;39139;53.144;6.244;2023-11-21T02:31:37;9.90;99.90
51733;DHT22;39139;53.144;6.244;2023-11-21T02:34:11;9.90;99.90
51733;DHT22;39139;53.144;6.244;2023-11-21T02:36:38;9.90;99.90
51733;DHT22;39139;53.144;6.244;2023-11-21T02:39:04;9.90;99.90
51733;DHT22;39139;53.144;6.244;2023-11-21T02:41:30;11.00;99.90
51733;DHT22;39139;53.144;6.244;2023-11-21T02:43:56;11.20;99.90
51733;DHT22;39139;53.144;6.244;2023-11-21T02:46:21;10.70;99.90
51733;DHT22;39139;53.144;6.244;2023-11-21T02:48:47;9.90;99.90
51733;DHT22;39139;53.144;6.244;2023-11-21T02:51:12;10.20;99.90
51733;DHT22;39139;53.144;6.244;2023-11-21T02:53:38;9.90;99.90
51733;DHT22;39139;53.144;6.244;2023-11-21T02:56:05;9.90;99.90
51733;DHT22;39139;53.144;6.244;2023-11-21T02:58:30;9.90;99.90
51733;DHT22;39139;53.144;6.244;2023-11-21T03:00:56;9.90;99.90
51733;DHT22;39139;53.144;6.244;2023-11-21T03:03:21;10.00;99.90
51733;DHT22;39139;53.144;6.244;2023-11-21T03:05:49;9.90;99.90
51733;DHT22;39139;53.144;6.244;2023-11-21T03:08:15;10.40;99.90
51733;DHT22;39139;53.144;6.244;2023-11-21T03:10:41;9.90;99.90
51733;DHT22;39139;53.144;6.244;2023-11-21T03:13:06;9.90;99.90
51733;DHT22;39139;53.144;6.244;2023-11-21T03:15:32;10.50;99.90
51733;DHT22;39139;53.144;6.244;2023-11-21T03:17:58;11.10;99.90
51733;DHT22;39139;53.144;6.244;2023-11-21T03:20:24;10.00;99.90
51733;DHT22;39139;53.144;6.244;2023-11-21T03:22:49;10.00;99.90
51733;DHT22;39139;53.144;6.244;2023-11-21T03:25:15;10.00;99.90
51733;DHT22;39139;53.144;6.244;2023-11-21T03:27:42;10.00;99.90
51733;DHT22;39139;53.144;6.244;2023-11-21T03:30:10;9.90;99.90
51733;DHT22;39139;53.144;6.244;2023-11-21T03:32:36;10.00;99.90
51733;DHT22;39139;53.144;6.244;2023-11-21T03:35:02;10.00;99.90
51733;DHT22;39139;53.144;6.244;2023-11-21T03:37:28;10.00;99.90
51733;DHT22;39139;53.144;6.244;2023-11-21T03:39:55;10.00;99.90
51733;DHT22;39139;53.144;6.244;2023-11-21T03:42:21;10.00;99.90
51733;DHT22;39139;53.144;6.244;2023-11-21T03:44:47;10.00;99.90
51733;DHT22;39139;53.144;6.244;2023-11-21T03:47:12;10.00;99.90
51733;DHT22;39139;53.144;6.244;2023-11-21T03:49:38;9.90;99.90
51733;DHT22;39139;53.144;6.244;2023-11-21T03:52:04;10.10;99.90
51733;DHT22;39139;53.144;6.244;2023-11-21T03:54:30;9.90;99.90
51733;DHT22;39139;53.144;6.244;2023-11-21T03:56:55;9.90;99.90
51733;DHT22;39139;53.144;6.244;2023-11-21T03:59:21;10.00;99.90
51733;DHT22;39139;53.144;6.244;2023-11-21T04:01:50;11.20;99.90
51733;DHT22;39139;53.144;6.244;2023-11-21T04:04:15;9.90;99.90
51733;DHT22;39139;53.144;6.244;2023-11-21T04:06:41;10.00;99.90
51733;DHT22;39139;53.144;6.244;2023-11-21T04:09:07;9.50;99.90
51733;DHT22;39139;53.144;6.244;2023-11-21T04:11:32;11.30;99.90
51733;DHT22;39139;53.144;6.244;2023-11-21T04:13:59;9.90;99.90
51733;DHT22;39139;53.144;6.244;2023-11-21T04:16:24;11.10;99.90
51733;DHT22;39139;53.144;6.244;2023-11-21T04:18:50;9.80;99.90
51733;DHT22;39139;53.144;6.244;2023-11-21T04:21:15;11.10;99.90
51733;DHT22;39139;53.144;6.244;2023-11-21T04:23:42;10.30;99.90
51733;DHT22;39139;53.144;6.244;2023-11-21T04:26:07;9.80;99.90
51733;DHT22;39139;53.144;6.244;2023-11-21T04:28:33;9.80;99.90
51733;DHT22;39139;53.144;6.244;2023-11-21T04:31:00;11.00;99.90
51733;DHT22;39139;53.144;6.244;2023-11-21T04:33:25;9.80;99.90
51733;DHT22;39139;53.144;6.244;2023-11-21T04:35:51;10.90;99.90
51733;DHT22;39139;53.144;6.244;2023-11-21T04:38:17;9.80;99.90
51733;DHT22;39139;53.144;6.244;2023-11-21T04:40:42;9.80;99.90
51733;DHT22;39139;53.144;6.244;2023-11-21T04:43:08;9.80;99.90
51733;DHT22;39139;53.144;6.244;2023-11-21T04:45:34;9.80;99.90
51733;DHT22;39139;53.144;6.244;2023-11-21T04:48:00;9.80;99.90
51733;DHT22;39139;53.144;6.244;2023-11-21T04:50:25;10.70;99.90
51733;DHT22;39139;53.144;6.244;2023-11-21T04:52:54;9.70;99.90
51733;DHT22;39139;53.144;6.244;2023-11-21T04:55:19;9.80;99.90
51733;DHT22;39139;53.144;6.244;2023-11-21T04:57:45;10.70;99.90
51733;DHT22;39139;53.144;6.244;2023-11-21T05:00:12;10.70;99.90
51733;DHT22;39139;53.144;6.244;2023-11-21T05:02:40;9.70;99.90
51733;DHT22;39139;53.144;6.244;2023-11-21T05:05:07;9.70;99.90
51733;DHT22;39139;53.144;6.244;2023-11-21T05:07:33;9.70;99.90
51733;DHT22;39139;53.144;6.244;2023-11-21T05:10:00;10.30;99.90
51733;DHT22;39139;53.144;6.244;2023-11-21T05:12:31;10.30;99.90
51733;DHT22;39139;53.144;6.244;2023-11-21T05:15:04;9.70;99.90
51733;DHT22;39139;53.144;6.244;2023-11-21T05:17:36;9.80;99.90
51733;DHT22;39139;53.144;6.244;2023-11-21T05:20:02;10.60;99.90
51733;DHT22;39139;53.144;6.244;2023-11-21T05:22:29;9.80;99.90
51733;DHT22;39139;53.144;6.244;2023-11-21T05:24:55;9.80;99.90
51733;DHT22;39139;53.144;6.244;2023-11-21T05:27:21;9.80;99.90
51733;DHT22;39139;53.144;6.244;2023-11-21T05:29:47;9.70;99.90
51733;DHT22;39139;53.144;6.244;2023-11-21T05:32:12;9.70;99.90
51733;DHT22;39139;53.144;6.244;2023-11-21T05:34:38;9.70;99.90
51733;DHT22;39139;53.144;6.244;2023-11-21T05:37:03;9.70;99.90
51733;DHT22;39139;53.144;6.244;2023-11-21T05:39:31;9.70;99.90
51733;DHT22;39139;53.144;6.244;2023-11-21T05:41:57;9.70;99.90
51733;DHT22;39139;53.144;6.244;2023-11-21T05:44:23;9.70;99.90
51733;DHT22;39139;53.144;6.244;2023-11-21T05:46:50;9.60;99.90
51733;DHT22;39139;53.144;6.244;2023-11-21T05:49:15;9.60;99.90
51733;DHT22;39139;53.144;6.244;2023-11-21T05:51:42;9.60;99.90
51733;DHT22;39139;53.144;6.244;2023-11-21T05:54:07;9.60;99.90
51733;DHT22;39139;53.144;6.244;2023-11-21T05:56:33;9.50;99.90
51733;DHT22;39139;53.144;6.244;2023-11-21T05:58:59;10.90;99.90
51733;DHT22;39139;53.144;6.244;2023-11-21T06:01:25;10.50;99.90
51733;DHT22;39139;53.144;6.244;2023-11-21T06:03:54;9.60;99.90
51733;DHT22;39139;53.144;6.244;2023-11-21T06:06:20;9.50;99.90
51733;DHT22;39139;53.144;6.244;2023-11-21T06:08:48;9.60;99.90
51733;DHT22;39139;53.144;6.244;2023-11-21T06:11:14;9.60;99.90
51733;DHT22;39139;53.144;6.244;2023-11-21T06:13:39;9.50;99.90
51733;DHT22;39139;53.144;6.244;2023-11-21T06:16:05;9.50;99.90
51733;DHT22;39139;53.144;6.244;2023-11-21T06:18:31;9.50;99.90
51733;DHT22;39139;53.144;6.244;2023-11-21T06:20:57;9.60;99.90
51733;DHT22;39139;53.144;6.244;2023-11-21T06:23:23;9.60;99.90
51733;DHT22;39139;53.144;6.244;2023-11-21T06:25:49;9.50;99.90
51733;DHT22;39139;53.144;6.244;2023-11-21T06:28:14;9.50;99.90
51733;DHT22;39139;53.144;6.244;2023-11-21T06:30:43;9.50;99.90
51733;DHT22;39139;53.144;6.244;2023-11-21T06:33:09;9.80;99.90
51733;DHT22;39139;53.144;6.244;2023-11-21T06:35:35;9.50;99.90
51733;DHT22;39139;53.144;6.244;2023-11-21T06:38:01;9.50;99.90
51733;DHT22;39139;53.144;6.244;2023-11-21T06:40:28;10.40;99.90
51733;DHT22;39139;53.144;6.244;2023-11-21T06:42:53;9.50;99.90
51733;DHT22;39139;53.144;6.244;2023-11-21T06:45:19;9.50;99.90
51733;DHT22;39139;53.144;6.244;2023-11-21T06:47:45;9.50;99.90
51733;DHT22;39139;53.144;6.244;2023-11-21T06:50:11;9.50;99.90
51733;DHT22;39139;53.144;6.244;2023-11-21T06:52:37;10.50;99.90
51733;DHT22;39139;53.144;6.244;2023-11-21T06:55:02;9.50;99.90
51733;DHT22;39139;53.144;6.244;2023-11-21T06:57:28;9.50;99.90
51733;DHT22;39139;53.144;6.244;2023-11-21T06:59:54;9.50;99.90
51733;DHT22;39139;53.144;6.244;2023-11-21T07:02:19;10.70;99.90
51733;DHT22;39139;53.144;6.244;2023-11-21T07:04:45;10.20;99.90
51733;DHT22;39139;53.144;6.244;2023-11-21T07:07:11;9.40;99.90
51733;DHT22;39139;53.144;6.244;2023-11-21T07:09:37;9.90;99.90
51733;DHT22;39139;53.144;6.244;2023-11-21T07:12:03;9.50;99.90
51733;DHT22;39139;53.144;6.244;2023-11-21T07:14:31;9.50;99.90
51733;DHT22;39139;53.144;6.244;2023-11-21T07:16:57;9.90;99.90
51733;DHT22;39139;53.144;6.244;2023-11-21T07:19:23;10.70;99.90
51733;DHT22;39139;53.144;6.244;2023-11-21T07:21:49;9.80;99.90
51733;DHT22;39139;53.144;6.244;2023-11-21T07:24:20;9.40;99.90
51733;DHT22;39139;53.144;6.244;2023-11-21T07:26:48;9.30;99.90
51733;DHT22;39139;53.144;6.244;2023-11-21T07:29:14;9.50;99.90
51733;DHT22;39139;53.144;6.244;2023-11-21T07:31:40;9.40;99.90
51733;DHT22;39139;53.144;6.244;2023-11-21T07:34:06;9.40;99.90
51733;DHT22;39139;53.144;6.244;2023-11-21T07:36:33;9.30;99.90
51733;DHT22;39139;53.144;6.244;2023-11-21T07:38:59;9.30;99.90
51733;DHT22;39139;53.144;6.244;2023-11-21T07:41:25;9.20;99.90
51733;DHT22;39139;53.144;6.244;2023-11-21T07:43:51;9.20;99.90
51733;DHT22;39139;53.144;6.244;2023-11-21T07:46:17;9.30;99.90
51733;DHT22;39139;53.144;6.244;2023-11-21T07:48:43;9.20;99.90
51733;DHT22;39139;53.144;6.244;2023-11-21T07:51:10;9.20;99.90
51733;DHT22;39139;53.144;6.244;2023-11-21T07:53:35;9.30;99.90
51733;DHT22;39139;53.144;6.244;2023-11-21T07:56:09;9.30;99.90
51733;DHT22;39139;53.144;6.244;2023-11-21T07:58:35;9.20;99.90
51733;DHT22;39139;53.144;6.244;2023-11-21T08:01:01;9.40;99.90
51733;DHT22;39139;53.144;6.244;2023-11-21T08:03:27;10.50;99.90
51733;DHT22;39139;53.144;6.244;2023-11-21T08:05:55;10.70;99.90
51733;DHT22;39139;53.144;6.244;2023-11-21T08:08:22;9.20;99.90
51733;DHT22;39139;53.144;6.244;2023-11-21T08:10:47;10.30;99.90
51733;DHT22;39139;53.144;6.244;2023-11-21T08:13:25;10.60;99.90
51733;DHT22;39139;53.144;6.244;2023-11-21T08:15:54;10.10;99.90
51733;DHT22;39139;53.144;6.244;2023-11-21T08:18:20;9.10;99.90
51733;DHT22;39139;53.144;6.244;2023-11-21T08:20:46;9.10;99.90
51733;DHT22;39139;53.144;6.244;2023-11-21T08:23:15;9.10;99.90
51733;DHT22;39139;53.144;6.244;2023-11-21T08:25:45;9.70;99.90
51733;DHT22;39139;53.144;6.244;2023-11-21T08:28:12;9.10;99.90
51733;DHT22;39139;53.144;6.244;2023-11-21T08:30:38;10.00;99.90
51733;DHT22;39139;53.144;6.244;2023-11-21T08:33:03;9.80;99.90
51733;DHT22;39139;53.144;6.244;2023-11-21T08:35:30;9.00;99.90
51733;DHT22;39139;53.144;6.244;2023-11-21T08:37:56;9.00;99.90
51733;DHT22;39139;53.144;6.244;2023-11-21T08:40:22;8.90;99.90
51733;DHT22;39139;53.144;6.244;2023-11-21T08:42:48;9.10;99.90
51733;DHT22;39139;53.144;6.244;2023-11-21T08:45:16;10.40;99.90
51733;DHT22;39139;53.144;6.244;2023-11-21T08:47:43;9.00;99.90
51733;DHT22;39139;53.144;6.244;2023-11-21T08:50:10;8.90;99.90
51733;DHT22;39139;53.144;6.244;2023-11-21T08:52:37;9.00;99.90
51733;DHT22;39139;53.144;6.244;2023-11-21T08:55:04;9.00;99.90
51733;DHT22;39139;53.144;6.244;2023-11-21T08:57:36;8.90;99.90
51733;DHT22;39139;53.144;6.244;2023-11-21T09:00:07;9.00;99.90
51733;DHT22;39139;53.144;6.244;2023-11-21T09:02:34;9.00;99.90
51733;DHT22;39139;53.144;6.244;2023-11-21T09:05:00;9.00;99.90
51733;DHT22;39139;53.144;6.244;2023-11-21T09:07:29;9.00;99.90
51733;DHT22;39139;53.144;6.244;2023-11-21T09:09:54;9.10;99.90
51733;DHT22;39139;53.144;6.244;2023-11-21T09:12:20;9.30;99.90
51733;DHT22;39139;53.144;6.244;2023-11-21T09:14:47;9.10;99.90
51733;DHT22;39139;53.144;6.244;2023-11-21T09:17:13;9.00;99.90
51733;DHT22;39139;53.144;6.244;2023-11-21T09:19:40;9.10;99.90
51733;DHT22;39139;53.144;6.244;2023-11-21T09:22:06;10.10;99.90
51733;DHT22;39139;53.144;6.244;2023-11-21T09:24:33;9.00;99.90
51733;DHT22;39139;53.144;6.244;2023-11-21T09:26:58;9.10;99.90
51733;DHT22;39139;53.144;6.244;2023-11-21T09:29:25;9.10;99.90
51733;DHT22;39139;53.144;6.244;2023-11-21T09:31:51;9.10;99.90
51733;DHT22;39139;53.144;6.244;2023-11-21T09:34:17;9.20;99.90
51733;DHT22;39139;53.144;6.244;2023-11-21T09:36:46;9.20;99.90
51733;DHT22;39139;53.144;6.244;2023-11-21T09:39:12;9.30;99.90
51733;DHT22;39139;53.144;6.244;2023-11-21T09:41:55;9.30;99.90
51733;DHT22;39139;53.144;6.244;2023-11-21T09:44:35;9.60;99.90
51733;DHT22;39139;53.144;6.244;2023-11-21T09:47:02;9.40;99.90
51733;DHT22;39139;53.144;6.244;2023-11-21T09:49:28;9.40;99.90
51733;DHT22;39139;53.144;6.244;2023-11-21T09:52:01;9.50;99.90
51733;DHT22;39139;53.144;6.244;2023-11-21T09:54:30;9.50;99.90
51733;DHT22;39139;53.144;6.244;2023-11-21T09:56:59;9.40;99.90
51733;DHT22;39139;53.144;6.244;2023-11-21T09:59:30;9.40;99.90
51733;DHT22;39139;53.144;6.244;2023-11-21T10:01:57;10.50;99.90
51733;DHT22;39139;53.144;6.244;2023-11-21T10:04:24;9.40;99.90
51733;DHT22;39139;53.144;6.244;2023-11-21T10:06:50;10.20;99.90
51733;DHT22;39139;53.144;6.244;2023-11-21T10:09:17;9.40;99.90
51733;DHT22;39139;53.144;6.244;2023-11-21T10:11:45;9.30;99.90
51733;DHT22;39139;53.144;6.244;2023-11-21T10:14:11;10.60;99.90
51733;DHT22;39139;53.144;6.244;2023-11-21T10:16:41;9.90;99.90
51733;DHT22;39139;53.144;6.244;2023-11-21T10:19:10;10.80;99.90
51733;DHT22;39139;53.144;6.244;2023-11-21T10:21:37;9.20;99.90
51733;DHT22;39139;53.144;6.244;2023-11-21T10:24:03;10.10;99.90
51733;DHT22;39139;53.144;6.244;2023-11-21T10:26:29;9.20;99.90
51733;DHT22;39139;53.144;6.244;2023-11-21T10:28:58;9.20;99.90
51733;DHT22;39139;53.144;6.244;2023-11-21T10:31:27;9.10;99.90
51733;DHT22;39139;53.144;6.244;2023-11-21T10:33:52;9.10;99.90
51733;DHT22;39139;53.144;6.244;2023-11-21T10:36:26;9.00;99.90
51733;DHT22;39139;53.144;6.244;2023-11-21T10:38:54;10.30;99.90
51733;DHT22;39139;53.144;6.244;2023-11-21T10:41:20;9.00;99.90
51733;DHT22;39139;53.144;6.244;2023-11-21T10:43:46;8.90;99.90
51733;DHT22;39139;53.144;6.244;2023-11-21T10:46:13;9.00;99.90
51733;DHT22;39139;53.144;6.244;2023-11-21T10:48:41;9.00;99.90
51733;DHT22;39139;53.144;6.244;2023-11-21T10:51:08;9.70;99.90
51733;DHT22;39139;53.144;6.244;2023-11-21T10:53:41;9.10;99.90
51733;DHT22;39139;53.144;6.244;2023-11-21T10:56:08;9.10;99.90
51733;DHT22;39139;53.144;6.244;2023-11-21T10:58:37;9.10;99.90
51733;DHT22;39139;53.144;6.244;2023-11-21T11:01:06;9.10;99.90
51733;DHT22;39139;53.144;6.244;2023-11-21T11:03:35;9.10;99.90
51733;DHT22;39139;53.144;6.244;2023-11-21T11:06:02;10.40;99.90
51733;DHT22;39139;53.144;6.244;2023-11-21T11:08:30;9.10;99.90
51733;DHT22;39139;53.144;6.244;2023-11-21T11:10:57;9.10;99.90
51733;DHT22;39139;53.144;6.244;2023-11-21T11:13:24;9.10;99.90
51733;DHT22;39139;53.144;6.244;2023-11-21T11:15:50;9.80;99.90
51733;DHT22;39139;53.144;6.244;2023-11-21T11:18:16;9.10;99.90
51733;DHT22;39139;53.144;6.244;2023-11-21T11:20:43;9.10;99.90
51733;DHT22;39139;53.144;6.244;2023-11-21T11:29:19;9.80;99.90
51733;DHT22;39139;53.144;6.244;2023-11-21T11:34:26;10.60;99.90
51733;DHT22;39139;53.144;6.244;2023-11-21T11:37:02;10.70;99.90
51733;DHT22;39139;53.144;6.244;2023-11-21T11:39:37;10.70;99.90
51733;DHT22;39139;53.144;6.244;2023-11-21T11:42:07;10.70;99.90
51733;DHT22;39139;53.144;6.244;2023-11-21T11:47:32;11.40;99.90
51733;DHT22;39139;53.144;6.244;2023-11-21T11:52:40;12.10;99.90
51733;DHT22;39139;53.144;6.244;2023-11-21T11:55:17;12.20;99.90
51733;DHT22;39139;53.144;6.244;2023-11-21T11:57:48;12.30;99.90
51733;DHT22;39139;53.144;6.244;2023-11-21T12:00:16;12.40;99.90
51733;DHT22;39139;53.144;6.244;2023-11-21T12:02:52;11.90;99.90
51733;DHT22;39139;53.144;6.244;2023-11-21T12:05:22;11.90;99.90
51733;DHT22;39139;53.144;6.244;2023-11-21T12:07:56;12.40;99.90
51733;DHT22;39139;53.144;6.244;2023-11-21T12:10:36;11.80;99.90
51733;DHT22;39139;53.144;6.244;2023-11-21T12:13:11;11.70;99.90
51733;DHT22;39139;53.144;6.244;2023-11-21T12:15:40;12.10;99.90
51733;DHT22;39139;53.144;6.244;2023-11-21T12:18:07;12.70;99.90
51733;DHT22;39139;53.144;6.244;2023-11-21T12:20:33;13.50;99.90
51733;DHT22;39139;53.144;6.244;2023-11-21T12:23:04;12.50;99.90
51733;DHT22;39139;53.144;6.244;2023-11-21T12:25:31;12.50;99.90
51733;DHT22;39139;53.144;6.244;2023-11-21T12:28:02;13.50;99.90
51733;DHT22;39139;53.144;6.244;2023-11-21T12:30:33;12.20;99.90
51733;DHT22;39139;53.144;6.244;2023-11-21T12:33:02;11.90;99.90
51733;DHT22;39139;53.144;6.244;2023-11-21T12:35:31;11.60;99.90
51733;DHT22;39139;53.144;6.244;2023-11-21T12:37:59;12.30;99.90
51733;DHT22;39139;53.144;6.244;2023-11-21T12:40:28;10.50;99.90
51733;DHT22;39139;53.144;6.244;2023-11-21T12:42:56;11.80;99.90
51733;DHT22;39139;53.144;6.244;2023-11-21T12:45:27;11.80;99.90
51733;DHT22;39139;53.144;6.244;2023-11-21T12:47:54;10.90;99.90
51733;DHT22;39139;53.144;6.244;2023-11-21T12:50:24;10.10;99.90
51733;DHT22;39139;53.144;6.244;2023-11-21T12:52:59;11.00;99.90
51733;DHT22;39139;53.144;6.244;2023-11-21T12:55:25;11.10;99.90
51733;DHT22;39139;53.144;6.244;2023-11-21T12:57:55;11.20;99.90
51733;DHT22;39139;53.144;6.244;2023-11-21T13:00:32;11.70;99.90
51733;DHT22;39139;53.144;6.244;2023-11-21T13:02:59;11.40;99.90
51733;DHT22;39139;53.144;6.244;2023-11-21T13:05:30;11.50;99.90
51733;DHT22;39139;53.144;6.244;2023-11-21T13:07:57;12.80;99.90
51733;DHT22;39139;53.144;6.244;2023-11-21T13:10:27;12.90;99.90
51733;DHT22;39139;53.144;6.244;2023-11-21T13:12:59;11.80;99.90
51733;DHT22;39139;53.144;6.244;2023-11-21T13:15:29;13.50;99.90
51733;DHT22;39139;53.144;6.244;2023-11-21T13:17:57;12.20;99.90
51733;DHT22;39139;53.144;6.244;2023-11-21T13:20:24;12.60;99.90
51733;DHT22;39139;53.144;6.244;2023-11-21T13:22:52;12.80;99.90
51733;DHT22;39139;53.144;6.244;2023-11-21T13:25:23;12.50;99.90
51733;DHT22;39139;53.144;6.244;2023-11-21T13:27:49;13.50;99.90
51733;DHT22;39139;53.144;6.244;2023-11-21T13:30:18;11.60;99.90
51733;DHT22;39139;53.144;6.244;2023-11-21T13:32:50;11.30;99.90
51733;DHT22;39139;53.144;6.244;2023-11-21T13:35:17;11.00;99.90
51733;DHT22;39139;53.144;6.244;2023-11-21T13:37:52;10.80;99.90
51733;DHT22;39139;53.144;6.244;2023-11-21T13:40:22;10.50;99.90
51733;DHT22;39139;53.144;6.244;2023-11-21T13:42:51;10.40;99.90
51733;DHT22;39139;53.144;6.244;2023-11-21T13:45:20;10.30;99.90
51733;DHT22;39139;53.144;6.244;2023-11-21T13:47:47;10.20;99.90
51733;DHT22;39139;53.144;6.244;2023-11-21T13:50:12;10.10;99.90
51733;DHT22;39139;53.144;6.244;2023-11-21T13:52:44;10.00;99.90
51733;DHT22;39139;53.144;6.244;2023-11-21T13:55:11;10.00;99.90
51733;DHT22;39139;53.144;6.244;2023-11-21T13:57:44;11.10;99.90
51733;DHT22;39139;53.144;6.244;2023-11-21T14:00:15;9.90;99.90
51733;DHT22;39139;53.144;6.244;2023-11-21T14:03:01;9.80;99.90
51733;DHT22;39139;53.144;6.244;2023-11-21T14:05:31;11.00;99.90
51733;DHT22;39139;53.144;6.244;2023-11-21T14:07:59;8.60;99.90
51733;DHT22;39139;53.144;6.244;2023-11-21T14:10:30;11.30;99.90
51733;DHT22;39139;53.144;6.244;2023-11-21T14:13:09;11.30;99.90
51733;DHT22;39139;53.144;6.244;2023-11-21T14:15:41;10.50;99.90
51733;DHT22;39139;53.144;6.244;2023-11-21T14:18:12;9.50;99.90
51733;DHT22;39139;53.144;6.244;2023-11-21T14:20:40;9.40;99.90
51733;DHT22;39139;53.144;6.244;2023-11-21T14:23:07;9.40;99.90
51733;DHT22;39139;53.144;6.244;2023-11-21T14:25:34;9.40;99.90
51733;DHT22;39139;53.144;6.244;2023-11-21T14:28:00;11.00;99.90
51733;DHT22;39139;53.144;6.244;2023-11-21T14:30:26;9.40;99.90
51733;DHT22;39139;53.144;6.244;2023-11-21T14:32:55;10.60;99.90
51733;DHT22;39139;53.144;6.244;2023-11-21T14:35:21;8.20;99.90
51733;DHT22;39139;53.144;6.244;2023-11-21T14:37:47;8.40;99.90
51733;DHT22;39139;53.144;6.244;2023-11-21T14:40:12;9.30;99.90
51733;DHT22;39139;53.144;6.244;2023-11-21T14:42:42;11.00;99.90
51733;DHT22;39139;53.144;6.244;2023-11-21T14:45:08;10.30;99.90
51733;DHT22;39139;53.144;6.244;2023-11-21T14:47:35;9.20;99.90
51733;DHT22;39139;53.144;6.244;2023-11-21T14:50:06;10.30;99.90
51733;DHT22;39139;53.144;6.244;2023-11-21T14:52:52;9.20;99.90
51733;DHT22;39139;53.144;6.244;2023-11-21T14:55:25;9.10;99.90
51733;DHT22;39139;53.144;6.244;2023-11-21T14:58:09;9.10;99.90
51733;DHT22;39139;53.144;6.244;2023-11-21T15:00:39;9.00;99.90
51733;DHT22;39139;53.144;6.244;2023-11-21T15:03:11;9.40;99.90
51733;DHT22;39139;53.144;6.244;2023-11-21T15:05:59;9.40;99.90
51733;DHT22;39139;53.144;6.244;2023-11-21T15:08:42;8.90;99.90
51733;DHT22;39139;53.144;6.244;2023-11-21T15:11:08;10.20;99.90
51733;DHT22;39139;53.144;6.244;2023-11-21T15:13:40;8.80;99.90
51733;DHT22;39139;53.144;6.244;2023-11-21T15:16:07;8.80;99.90
51733;DHT22;39139;53.144;6.244;2023-11-21T15:18:34;8.80;99.90
51733;DHT22;39139;53.144;6.244;2023-11-21T15:21:01;8.90;99.90
51733;DHT22;39139;53.144;6.244;2023-11-21T15:23:29;8.80;99.90
51733;DHT22;39139;53.144;6.244;2023-11-21T15:25:56;9.80;99.90
51733;DHT22;39139;53.144;6.244;2023-11-21T15:28:23;8.70;99.90
51733;DHT22;39139;53.144;6.244;2023-11-21T15:30:50;8.70;99.90
51733;DHT22;39139;53.144;6.244;2023-11-21T15:33:17;8.70;99.90
51733;DHT22;39139;53.144;6.244;2023-11-21T15:35:43;10.20;99.90
51733;DHT22;39139;53.144;6.244;2023-11-21T15:38:09;8.60;99.90
51733;DHT22;39139;53.144;6.244;2023-11-21T15:40:34;8.60;99.90
51733;DHT22;39139;53.144;6.244;2023-11-21T15:43:00;9.70;99.90
51733;DHT22;39139;53.144;6.244;2023-11-21T15:45:28;8.50;99.90
51733;DHT22;39139;53.144;6.244;2023-11-21T15:47:54;8.30;99.90
51733;DHT22;39139;53.144;6.244;2023-11-21T15:50:21;8.30;99.90
51733;DHT22;39139;53.144;6.244;2023-11-21T15:52:47;9.40;99.90
51733;DHT22;39139;53.144;6.244;2023-11-21T15:55:13;8.30;99.90
51733;DHT22;39139;53.144;6.244;2023-11-21T15:57:38;8.20;99.90